Time;durP1;ratioP1;P1;durP2;ratioP2;P2;SDS_P1;SDS_P2;PMS_P1;PMS_P2;Temp;Humidity;BMP_temperature;BMP_pressure;BME280_temperature;BME280_humidity;BME280_pressure;Samples;Min_cycle;Max_cycle;Signal;HPM_P1;HPM_P2
2022/09/14 00:01:05;;;;;;;6.47;2.50;;;;;;;;;;4918289;29;20032;-66
2022/09/14 00:03:31;;;;;;;5.97;2.88;;;;;;;;;;4935488;29;20047;-63
2022/09/14 00:06:05;;;;;;;10.15;3.17;;;;;;;;;;4935718;29;20475;-66
2022/09/14 00:08:33;;;;;;;10.73;3.65;;;;;;;;;;4935792;29;20054;-64
2022/09/14 00:11:03;;;;;;;7.32;2.67;;;;;;;;;;4935607;29;20038;-63
2022/09/14 00:13:29;;;;;;;9.35;3.20;;;;;;;;;;4935319;29;20032;-64
2022/09/14 00:15:55;;;;;;;4.95;2.53;;;;;;;;;;4949562;28;20047;-64
2022/09/14 00:18:21;;;;;;;10.27;2.78;;;;;;;;;;4954632;28;20046;-64
2022/09/14 00:20:47;;;;;;;7.93;3.10;;;;;;;;;;4953492;28;20406;-63
2022/09/14 00:23:13;;;;;;;13.30;3.45;;;;;;;;;;4953524;29;20028;-63
2022/09/14 00:25:38;;;;;;;8.68;3.00;;;;;;;;;;4954329;28;20051;-63
2022/09/14 00:28:04;;;;;;;6.45;3.55;;;;;;;;;;4954014;28;20495;-63
2022/09/14 00:30:30;;;;;;;5.20;2.88;;;;;;;;;;4953937;28;20058;-62
2022/09/14 00:32:56;;;;;;;7.50;2.55;;;;;;;;;;4954205;28;20118;-62
2022/09/14 00:35:22;;;;;;;7.05;2.30;;;;;;;;;;4954374;28;20426;-62
2022/09/14 00:37:49;;;;;;;6.55;2.60;;;;;;;;;;4954432;29;20031;-63
2022/09/14 00:40:15;;;;;;;7.00;2.53;;;;;;;;;;4954713;28;20482;-63
2022/09/14 00:42:41;;;;;;;5.30;2.50;;;;;;;;;;4953808;29;20043;-64
2022/09/14 00:45:14;;;;;;;6.97;2.58;;;;;;;;;;4954053;28;20059;-63
2022/09/14 00:47:40;;;;;;;5.50;2.60;;;;;;;;;;4953875;28;20042;-63
2022/09/14 00:50:08;;;;;;;9.63;2.78;;;;;;;;;;4937005;29;20440;-62
2022/09/14 00:52:36;;;;;;;6.47;2.42;;;;;;;;;;4954200;28;20031;-61
2022/09/14 00:55:07;;;;;;;5.57;2.30;;;;;;;;;;4953820;28;20027;-62
2022/09/14 00:57:39;;;;;;;9.32;2.55;;;;;;;;;;4953843;28;20031;-62
2022/09/14 01:00:08;;;;;;;8.23;2.53;;;;;;;;;;4936620;29;20062;-62
2022/09/14 01:02:34;;;;;;;8.77;2.80;;;;;;;;;;4954102;28;20182;-61
2022/09/14 01:05:01;;;;;;;6.65;2.90;;;;;;;;;;4954061;28;20496;-61
2022/09/14 01:07:47;;;;;;;8.98;2.83;;;;;;;;;;4954341;28;20027;-61
2022/09/14 01:10:21;;;;;;;4.68;2.72;;;;;;;;;;4953985;28;20118;-62
2022/09/14 01:13:32;;;;;;;5.45;2.92;;;;;;;;;;4953797;28;20067;-63
2022/09/14 01:16:11;;;;;;;9.38;3.00;;;;;;;;;;4953670;28;20098;-63
2022/09/14 01:18:44;;;;;;;3.80;2.42;;;;;;;;;;4954096;28;20058;-61
2022/09/14 01:21:27;;;;;;;7.90;2.90;;;;;;;;;;4953755;28;20031;-62
2022/09/14 01:24:19;;;;;;;7.57;2.92;;;;;;;;;;4953746;28;20460;-62
2022/09/14 01:26:48;;;;;;;7.90;3.20;;;;;;;;;;4953619;28;20042;-62
2022/09/14 01:29:18;;;;;;;9.27;3.47;;;;;;;;;;4953358;28;20019;-62
2022/09/14 01:31:58;;;;;;;6.53;3.20;;;;;;;;;;4953706;28;20039;-63
2022/09/14 01:34:38;;;;;;;10.05;2.80;;;;;;;;;;4953846;28;20064;-62
2022/09/14 01:37:12;;;;;;;4.93;2.80;;;;;;;;;;4953374;28;20042;-62
2022/09/14 01:39:43;;;;;;;7.80;2.60;;;;;;;;;;4953259;28;20062;-62
2022/09/14 01:42:11;;;;;;;7.13;2.72;;;;;;;;;;4957365;28;20050;-62
2022/09/14 01:44:41;;;;;;;5.38;2.58;;;;;;;;;;4958664;28;20118;-62
2022/09/14 01:47:41;;;;;;;4.93;2.75;;;;;;;;;;4959638;28;20517;-63
2022/09/14 01:50:16;;;;;;;8.43;3.13;;;;;;;;;;4944437;28;20118;-62
2022/09/14 01:53:04;;;;;;;5.65;2.22;;;;;;;;;;4952310;28;20496;-62
2022/09/14 01:56:06;;;;;;;5.45;2.67;;;;;;;;;;4952013;28;20434;-62
2022/09/14 01:58:45;;;;;;;8.52;2.85;;;;;;;;;;4952938;28;20039;-61
2022/09/14 02:01:20;;;;;;;4.70;2.40;;;;;;;;;;4953024;28;20031;-61
2022/09/14 02:03:56;;;;;;;5.45;3.00;;;;;;;;;;4961179;28;20386;-61
2022/09/14 02:06:33;;;;;;;5.32;2.80;;;;;;;;;;4970508;28;20422;-62
2022/09/14 02:08:59;;;;;;;5.43;3.28;;;;;;;;;;4977273;28;20039;-62
2022/09/14 02:11:25;;;;;;;7.95;2.67;;;;;;;;;;4977247;28;20362;-61
2022/09/14 02:13:51;;;;;;;3.55;2.20;;;;;;;;;;4974207;28;20049;-65
2022/09/14 02:16:18;;;;;;;7.75;2.70;;;;;;;;;;4971782;28;20478;-62
2022/09/14 02:18:43;;;;;;;6.07;2.65;;;;;;;;;;4977057;28;20039;-63
2022/09/14 02:21:16;;;;;;;5.05;2.60;;;;;;;;;;4971008;28;20038;-62
2022/09/14 02:23:42;;;;;;;6.15;2.92;;;;;;;;;;4954014;28;20069;-61
2022/09/14 02:26:09;;;;;;;9.20;2.95;;;;;;;;;;4975834;28;20059;-62
2022/09/14 02:28:35;;;;;;;7.18;3.60;;;;;;;;;;4957033;28;20031;-62
2022/09/14 02:31:28;;;;;;;6.88;2.83;;;;;;;;;;4956834;28;20076;-62
2022/09/14 02:34:32;;;;;;;8.45;4.03;;;;;;;;;;4953537;28;20074;-61
2022/09/14 02:37:10;;;;;;;6.95;2.80;;;;;;;;;;4956687;28;20058;-61
2022/09/14 02:40:04;;;;;;;8.70;3.38;;;;;;;;;;4940280;29;20055;-62
2022/09/14 02:43:00;;;;;;;6.32;3.13;;;;;;;;;;4957275;29;20038;-61
2022/09/14 02:46:06;;;;;;;4.22;2.65;;;;;;;;;;4957200;28;20039;-62
2022/09/14 02:48:41;;;;;;;8.40;2.85;;;;;;;;;;4956937;28;20027;-62
2022/09/14 02:51:29;;;;;;;5.82;3.80;;;;;;;;;;4957070;28;20043;-62
2022/09/14 02:54:02;;;;;;;7.00;3.28;;;;;;;;;;4957326;28;20042;-62
2022/09/14 02:56:28;;;;;;;5.60;2.97;;;;;;;;;;4940155;29;20414;-62
2022/09/14 02:58:55;;;;;;;7.40;3.05;;;;;;;;;;4956824;28;20031;-61
2022/09/14 03:01:23;;;;;;;3.85;2.45;;;;;;;;;;4956997;28;20122;-60
2022/09/14 03:03:48;;;;;;;3.78;2.65;;;;;;;;;;4957072;28;20035;-61
2022/09/14 03:06:14;;;;;;;4.28;2.50;;;;;;;;;;4956881;28;20162;-63
2022/09/14 03:08:40;;;;;;;5.10;2.63;;;;;;;;;;4956829;28;20023;-61
2022/09/14 03:11:06;;;;;;;6.97;2.60;;;;;;;;;;4956751;28;20039;-62
2022/09/14 03:13:36;;;;;;;6.63;2.80;;;;;;;;;;4956785;28;20387;-64
2022/09/14 03:16:11;;;;;;;4.90;2.65;;;;;;;;;;4956379;28;20051;-62
2022/09/14 03:18:37;;;;;;;12.55;3.42;;;;;;;;;;4966838;28;20027;-61
2022/09/14 03:21:05;;;;;;;15.77;3.10;;;;;;;;;;4969837;28;20027;-63
2022/09/14 03:23:35;;;;;;;8.88;2.65;;;;;;;;;;4975566;28;20032;-61
2022/09/14 03:26:06;;;;;;;11.13;3.22;;;;;;;;;;4975696;28;20034;-63
2022/09/14 03:28:32;;;;;;;7.10;3.42;;;;;;;;;;4975606;28;20062;-61
2022/09/14 03:31:00;;;;;;;10.45;3.50;;;;;;;;;;4962880;28;20526;-62
2022/09/14 03:33:26;;;;;;;8.35;3.30;;;;;;;;;;4956626;28;20035;-63
2022/09/14 03:35:52;;;;;;;8.73;3.85;;;;;;;;;;4956043;28;20042;-62
2022/09/14 03:38:18;;;;;;;10.30;3.70;;;;;;;;;;4956294;28;20039;-66
2022/09/14 03:40:44;;;;;;;25.40;4.95;;;;;;;;;;4956030;28;20032;-62
2022/09/14 03:43:11;;;;;;;10.85;3.63;;;;;;;;;;4938896;28;20443;-62
2022/09/14 03:45:37;;;;;;;13.70;3.88;;;;;;;;;;4956220;28;20023;-61
2022/09/14 03:48:04;;;;;;;9.63;3.67;;;;;;;;;;4956224;28;20147;-63
2022/09/14 03:50:30;;;;;;;15.73;3.95;;;;;;;;;;4956140;28;20091;-62
2022/09/14 03:52:56;;;;;;;14.20;4.88;;;;;;;;;;4955908;28;20510;-62
2022/09/14 03:55:22;;;;;;;12.95;5.28;;;;;;;;;;4938578;28;20031;-62
2022/09/14 03:57:52;;;;;;;15.57;4.45;;;;;;;;;;4955799;28;20035;-62
2022/09/14 04:00:18;;;;;;;17.05;4.43;;;;;;;;;;4957240;28;20033;-62
2022/09/14 04:02:45;;;;;;;9.15;3.75;;;;;;;;;;4974977;28;20121;-63
2022/09/14 04:05:11;;;;;;;9.10;4.28;;;;;;;;;;4975214;28;20038;-61
2022/09/14 04:07:36;;;;;;;14.02;3.72;;;;;;;;;;4975212;28;20042;-64
2022/09/14 04:10:04;;;;;;;8.25;3.45;;;;;;;;;;4974248;28;20473;-61
2022/09/14 04:12:36;;;;;;;8.40;3.50;;;;;;;;;;4974986;28;20039;-61
2022/09/14 04:15:06;;;;;;;17.63;4.40;;;;;;;;;;4974649;28;20097;-62
2022/09/14 04:17:32;;;;;;;8.48;3.60;;;;;;;;;;4959393;28;20322;-62
2022/09/14 04:19:58;;;;;;;14.18;3.85;;;;;;;;;;4960972;28;20042;-61
2022/09/14 04:22:24;;;;;;;9.00;4.55;;;;;;;;;;4962789;28;20489;-62
2022/09/14 04:24:50;;;;;;;13.43;4.30;;;;;;;;;;4955461;28;20034;-63
2022/09/14 04:27:15;;;;;;;11.27;4.15;;;;;;;;;;4962556;28;20022;-63
2022/09/14 04:29:41;;;;;;;11.75;3.40;;;;;;;;;;4961122;28;20505;-61
2022/09/14 04:32:07;;;;;;;12.32;3.63;;;;;;;;;;4963864;28;20114;-61
2022/09/14 04:34:34;;;;;;;13.98;3.72;;;;;;;;;;4961164;28;20031;-61
2022/09/14 04:37:00;;;;;;;14.82;4.20;;;;;;;;;;4953235;28;20042;-61
2022/09/14 04:39:26;;;;;;;10.48;3.63;;;;;;;;;;4953997;28;20048;-64
2022/09/14 04:41:52;;;;;;;19.70;5.03;;;;;;;;;;4949343;28;20031;-64
2022/09/14 04:44:18;;;;;;;13.07;5.25;;;;;;;;;;4973433;28;20092;-62
2022/09/14 04:46:44;;;;;;;12.35;3.08;;;;;;;;;;4973560;28;20094;-62
2022/09/14 04:49:10;;;;;;;9.60;3.15;;;;;;;;;;4974039;28;20037;-62
2022/09/14 04:51:36;;;;;;;12.98;2.83;;;;;;;;;;4973971;28;20031;-62
2022/09/14 04:54:04;;;;;;;13.68;3.28;;;;;;;;;;4973567;28;20041;-62
2022/09/14 04:56:33;;;;;;;14.27;3.78;;;;;;;;;;4973940;28;20045;-62
2022/09/14 04:59:03;;;;;;;10.00;3.33;;;;;;;;;;4973613;28;20039;-63
2022/09/14 05:01:35;;;;;;;12.13;3.10;;;;;;;;;;4956242;28;20443;-62
2022/09/14 05:04:01;;;;;;;7.78;2.85;;;;;;;;;;4973050;28;20063;-62
2022/09/14 05:06:29;;;;;;;13.15;3.42;;;;;;;;;;4972707;28;20027;-63
2022/09/14 05:08:56;;;;;;;13.15;3.92;;;;;;;;;;4973222;28;20163;-63
2022/09/14 05:11:28;;;;;;;14.85;3.88;;;;;;;;;;4973040;28;20058;-64
2022/09/14 05:13:56;;;;;;;10.23;3.97;;;;;;;;;;4973471;28;20521;-63
2022/09/14 05:16:32;;;;;;;12.52;3.80;;;;;;;;;;4973017;28;20486;-62
2022/09/14 05:19:00;;;;;;;12.57;4.07;;;;;;;;;;4972658;28;20034;-63
2022/09/14 05:21:28;;;;;;;10.57;3.60;;;;;;;;;;4971064;28;20034;-63
2022/09/14 05:23:55;;;;;;;6.60;2.80;;;;;;;;;;4964481;28;20050;-66
2022/09/14 05:26:23;;;;;;;9.82;2.70;;;;;;;;;;4962012;28;20038;-64
2022/09/14 05:28:51;;;;;;;10.52;2.78;;;;;;;;;;4946828;28;20030;-68
2022/09/14 05:31:17;;;;;;;4.93;2.65;;;;;;;;;;4972734;28;20077;-65
2022/09/14 05:33:43;;;;;;;4.82;2.83;;;;;;;;;;4973213;28;20077;-65
2022/09/14 05:36:09;;;;;;;4.72;2.67;;;;;;;;;;4971904;28;20121;-63
2022/09/14 05:38:37;;;;;;;5.78;2.58;;;;;;;;;;4971563;28;20061;-70
2022/09/14 05:41:05;;;;;;;4.95;2.97;;;;;;;;;;4953995;28;20023;-64
2022/09/14 05:43:31;;;;;;;8.93;3.22;;;;;;;;;;4956881;28;20094;-61
2022/09/14 05:46:01;;;;;;;4.82;2.80;;;;;;;;;;4974345;28;20125;-61
2022/09/14 05:48:31;;;;;;;8.73;3.10;;;;;;;;;;4977047;28;20042;-64
2022/09/14 05:51:02;;;;;;;5.38;2.85;;;;;;;;;;4975514;28;20042;-64
2022/09/14 05:53:28;;;;;;;8.40;3.17;;;;;;;;;;4975149;28;20340;-64
2022/09/14 05:56:12;;;;;;;7.13;2.95;;;;;;;;;;4976095;28;20026;-64
2022/09/14 05:58:40;;;;;;;7.35;2.95;;;;;;;;;;4976594;28;20027;-63
2022/09/14 06:01:14;;;;;;;7.03;2.80;;;;;;;;;;4977092;28;20073;-63
2022/09/14 06:03:44;;;;;;;6.07;3.08;;;;;;;;;;4976971;28;20175;-63
2022/09/14 06:06:12;;;;;;;4.95;3.03;;;;;;;;;;4976980;28;20041;-63
2022/09/14 06:08:38;;;;;;;8.52;3.20;;;;;;;;;;4974096;28;20078;-64
2022/09/14 06:11:07;;;;;;;7.93;3.25;;;;;;;;;;4976786;28;20117;-63
2022/09/14 06:13:33;;;;;;;7.82;3.05;;;;;;;;;;4971089;28;20089;-64
2022/09/14 06:16:09;;;;;;;11.55;3.55;;;;;;;;;;4976757;28;20051;-62
2022/09/14 06:18:36;;;;;;;9.20;4.18;;;;;;;;;;4977074;28;20042;-63
2022/09/14 06:21:03;;;;;;;14.32;5.30;;;;;;;;;;4977021;28;20057;-64
2022/09/14 06:23:30;;;;;;;8.52;5.55;;;;;;;;;;4969674;28;20081;-63
2022/09/14 06:25:57;;;;;;;7.35;3.97;;;;;;;;;;4966928;28;20047;-63
2022/09/14 06:28:24;;;;;;;9.82;4.65;;;;;;;;;;4965721;28;20031;-68
2022/09/14 06:30:50;;;;;;;12.15;3.80;;;;;;;;;;4967174;28;20430;-67
2022/09/14 06:33:17;;;;;;;7.30;3.45;;;;;;;;;;4949323;28;20159;-67
2022/09/14 06:35:52;;;;;;;5.82;3.38;;;;;;;;;;4965608;28;20031;-71
2022/09/14 06:38:18;;;;;;;12.85;4.30;;;;;;;;;;4957972;28;20035;-67
2022/09/14 06:40:58;;;;;;;7.63;3.40;;;;;;;;;;4956799;28;20024;-67
2022/09/14 06:43:25;;;;;;;5.82;3.30;;;;;;;;;;4963022;28;20054;-66
2022/09/14 06:45:57;;;;;;;6.75;3.65;;;;;;;;;;4976292;28;20022;-66
2022/09/14 06:48:24;;;;;;;8.87;3.73;;;;;;;;;;4958703;28;20042;-65
2022/09/14 06:50:50;;;;;;;10.88;4.00;;;;;;;;;;4975950;28;20360;-64
2022/09/14 06:53:16;;;;;;;11.20;3.22;;;;;;;;;;4959129;28;20067;-64
2022/09/14 06:55:44;;;;;;;10.35;2.97;;;;;;;;;;4956773;28;20059;-68
2022/09/14 06:58:10;;;;;;;10.00;3.33;;;;;;;;;;4957007;28;20110;-66
2022/09/14 07:00:36;;;;;;;7.07;3.30;;;;;;;;;;4956955;28;20147;-67
2022/09/14 07:03:02;;;;;;;5.22;3.15;;;;;;;;;;4955468;28;20067;-67
2022/09/14 07:05:29;;;;;;;12.90;3.05;;;;;;;;;;4956664;28;20058;-66
2022/09/14 07:07:56;;;;;;;17.98;2.90;;;;;;;;;;4956911;28;20037;-66
2022/09/14 07:10:22;;;;;;;10.32;3.22;;;;;;;;;;4956822;28;20541;-67
2022/09/14 07:12:48;;;;;;;9.18;2.97;;;;;;;;;;4956890;28;20031;-66
2022/09/14 07:15:14;;;;;;;12.73;2.80;;;;;;;;;;4956628;28;20383;-68
2022/09/14 07:17:44;;;;;;;4.90;2.75;;;;;;;;;;4956824;28;20039;-67
2022/09/14 07:20:10;;;;;;;5.13;2.65;;;;;;;;;;4956729;28;20035;-66
2022/09/14 07:22:35;;;;;;;5.72;2.33;;;;;;;;;;4956205;28;20094;-65
2022/09/14 07:25:01;;;;;;;9.55;2.95;;;;;;;;;;4935013;29;20039;-65
2022/09/14 07:27:27;;;;;;;10.20;2.63;;;;;;;;;;4955223;28;20019;-67
2022/09/14 07:29:54;;;;;;;7.15;2.45;;;;;;;;;;4956720;28;20741;-66
2022/09/14 07:32:20;;;;;;;3.83;2.40;;;;;;;;;;4975459;28;20101;-64
2022/09/14 07:34:46;;;;;;;6.22;2.72;;;;;;;;;;4974902;28;20066;-66
2022/09/14 07:37:11;;;;;;;6.63;2.55;;;;;;;;;;4975432;28;20046;-66
2022/09/14 07:39:37;;;;;;;8.77;3.22;;;;;;;;;;4975427;28;20058;-67
2022/09/14 07:42:03;;;;;;;10.10;2.90;;;;;;;;;;4957854;28;20038;-67
2022/09/14 07:44:29;;;;;;;5.10;2.30;;;;;;;;;;4975243;28;20461;-65
2022/09/14 07:46:55;;;;;;;8.95;3.03;;;;;;;;;;4974374;28;20027;-66
2022/09/14 07:49:21;;;;;;;6.43;2.78;;;;;;;;;;4957422;28;20561;-67
2022/09/14 07:51:47;;;;;;;7.88;2.75;;;;;;;;;;4975117;28;20037;-66
2022/09/14 07:54:16;;;;;;;7.63;2.72;;;;;;;;;;4975072;28;20408;-67
2022/09/14 07:56:44;;;;;;;5.40;2.75;;;;;;;;;;4975014;28;20022;-68
2022/09/14 07:59:11;;;;;;;3.83;2.63;;;;;;;;;;4974350;28;20134;-66
2022/09/14 08:01:37;;;;;;;7.28;2.63;;;;;;;;;;4974906;28;20085;-66
2022/09/14 08:04:03;;;;;;;6.68;2.60;;;;;;;;;;4974804;28;20149;-66
2022/09/14 08:06:29;;;;;;;5.88;2.60;;;;;;;;;;4974311;28;20114;-65
2022/09/14 08:08:56;;;;;;;6.30;2.67;;;;;;;;;;4974470;28;20062;-65
2022/09/14 08:11:29;;;;;;;5.07;3.33;;;;;;;;;;4974922;28;20042;-66
2022/09/14 08:13:56;;;;;;;;;;;;;;;;;;4975367;28;20050;-67
2022/09/14 08:16:23;;;;;;;3.70;2.45;;;;;;;;;;4974263;28;19918;-66
2022/09/14 08:18:54;;;;;;;4.22;2.40;;;;;;;;;;4974886;28;20560;-65
2022/09/14 08:21:20;;;;;;;4.43;2.60;;;;;;;;;;4977088;28;20035;-66
2022/09/14 08:23:46;;;;;;;3.75;2.42;;;;;;;;;;4977597;28;20109;-66
2022/09/14 08:26:15;;;;;;;4.68;2.30;;;;;;;;;;4978898;28;20574;-68
2022/09/14 08:28:41;;;;;;;5.15;2.20;;;;;;;;;;4979950;28;20026;-66
2022/09/14 08:31:13;;;;;;;3.75;2.25;;;;;;;;;;4978704;28;20117;-66
2022/09/14 08:33:42;;;;;;;5.38;2.85;;;;;;;;;;4977565;28;20564;-67
2022/09/14 08:36:09;;;;;;;5.88;3.03;;;;;;;;;;4975419;28;20049;-65
2022/09/14 08:38:35;;;;;;;4.35;2.10;;;;;;;;;;4974178;28;20074;-66
2022/09/14 08:41:21;;;;;;;5.72;2.20;;;;;;;;;;4974064;28;20105;-66
2022/09/14 08:43:47;;;;;;;4.57;2.33;;;;;;;;;;4973931;28;20109;-67
2022/09/14 08:46:24;;;;;;;6.45;2.30;;;;;;;;;;4973894;28;20037;-66
2022/09/14 08:48:51;;;;;;;7.32;2.58;;;;;;;;;;4974114;28;20474;-67
2022/09/14 08:51:17;;;;;;;6.10;2.80;;;;;;;;;;4973799;28;20094;-66
2022/09/14 08:53:43;;;;;;;6.85;2.30;;;;;;;;;;4973974;28;20478;-66
2022/09/14 08:56:17;;;;;;;4.82;2.50;;;;;;;;;;4973571;28;20078;-65
2022/09/14 08:58:51;;;;;;;7.05;3.55;;;;;;;;;;4973968;28;20038;-65
2022/09/14 09:01:35;;;;;;;5.53;2.60;;;;;;;;;;4963305;28;20175;-68
2022/09/14 09:04:35;;;;;;;4.38;2.40;;;;;;;;;;4963378;28;20043;-65
2022/09/14 09:07:11;;;;;;;4.18;2.50;;;;;;;;;;4945147;28;20090;-67
2022/09/14 09:09:58;;;;;;;5.63;2.92;;;;;;;;;;4961734;28;20046;-67
2022/09/14 09:12:40;;;;;;;4.60;2.17;;;;;;;;;;4959504;28;20066;-64
2022/09/14 09:15:52;;;;;;;5.43;2.08;;;;;;;;;;4957746;28;20046;-66
2022/09/14 09:18:36;;;;;;;9.25;2.40;;;;;;;;;;4941219;28;20098;-64
2022/09/14 09:21:13;;;;;;;3.50;2.30;;;;;;;;;;4964803;28;20054;-63
2022/09/14 09:23:40;;;;;;;4.75;2.10;;;;;;;;;;4966221;28;20089;-67
2022/09/14 09:26:16;;;;;;;3.92;2.22;;;;;;;;;;4952861;29;20053;-68
2022/09/14 09:28:48;;;;;;;6.10;2.20;;;;;;;;;;4963492;28;20047;-66
2022/09/14 09:31:16;;;;;;;4.70;2.20;;;;;;;;;;4972295;28;20039;-66
2022/09/14 09:34:02;;;;;;;6.30;2.15;;;;;;;;;;4955573;28;20281;-66
2022/09/14 09:36:36;;;;;;;3.08;2.00;;;;;;;;;;4935747;29;20039;-65
2022/09/14 09:39:03;;;;;;;2.92;2.00;;;;;;;;;;4935795;28;20098;-65
2022/09/14 09:41:35;;;;;;;4.82;2.35;;;;;;;;;;4939560;28;20382;-65
2022/09/14 09:44:08;;;;;;;5.60;2.30;;;;;;;;;;4948738;28;20040;-66
2022/09/14 09:46:50;;;;;;;3.85;2.38;;;;;;;;;;4955080;28;20042;-67
2022/09/14 09:49:24;;;;;;;3.53;1.90;;;;;;;;;;4950262;28;20335;-66
2022/09/14 09:51:52;;;;;;;6.35;2.40;;;;;;;;;;4950903;28;20038;-65
2022/09/14 09:54:30;;;;;;;4.10;2.50;;;;;;;;;;4966044;28;20081;-67
2022/09/14 09:56:59;;;;;;;5.85;2.35;;;;;;;;;;4972431;28;20178;-65
2022/09/14 09:59:40;;;;;;;2.97;2.00;;;;;;;;;;4950472;28;20086;-66
2022/09/14 10:02:24;;;;;;;5.25;2.45;;;;;;;;;;4952512;29;20058;-68
2022/09/14 10:05:03;;;;;;;6.07;2.75;;;;;;;;;;4953527;29;20443;-69
2022/09/14 10:07:32;;;;;;;3.65;2.42;;;;;;;;;;4952940;29;20047;-65
2022/09/14 10:10:09;;;;;;;4.30;2.30;;;;;;;;;;4935517;29;20019;-67
2022/09/14 10:12:38;;;;;;;3.92;1.77;;;;;;;;;;4970439;28;20041;-66
2022/09/14 10:15:13;;;;;;;6.60;2.22;;;;;;;;;;4972115;28;20077;-66
2022/09/14 10:17:39;;;;;;;3.15;1.90;;;;;;;;;;4972052;28;20046;-66
2022/09/14 10:20:05;;;;;;;3.30;2.20;;;;;;;;;;4972588;28;20035;-70
2022/09/14 10:22:33;;;;;;;3.95;2.00;;;;;;;;;;4972145;28;20031;-65
2022/09/14 10:25:02;;;;;;;2.28;1.60;;;;;;;;;;4969656;28;20035;-66
2022/09/14 10:27:34;;;;;;;4.03;1.98;;;;;;;;;;4970449;28;20058;-67
2022/09/14 10:30:04;;;;;;;2.78;1.92;;;;;;;;;;4974860;28;20110;-68
2022/09/14 10:32:32;;;;;;;3.00;2.00;;;;;;;;;;4975614;28;20042;-67
2022/09/14 10:34:58;;;;;;;6.30;2.30;;;;;;;;;;4976706;28;20478;-70
2022/09/14 10:37:49;;;;;;;4.72;2.15;;;;;;;;;;4976611;28;20474;-66
2022/09/14 10:40:18;;;;;;;4.25;2.42;;;;;;;;;;4959089;28;20043;-67
2022/09/14 10:43:08;;;;;;;2.67;1.70;;;;;;;;;;4976318;28;20140;-67
2022/09/14 10:45:39;;;;;;;3.72;1.88;;;;;;;;;;4976303;28;20081;-66
2022/09/14 10:48:42;;;;;;;3.53;2.20;;;;;;;;;;4976576;28;20035;-72
2022/09/14 10:51:28;;;;;;;11.88;8.07;;;;;;;;;;4976084;28;20042;-66
2022/09/14 10:54:03;;;;;;;5.80;3.30;;;;;;;;;;4959010;28;20109;-68
2022/09/14 10:57:11;;;;;;;3.72;1.80;;;;;;;;;;4976205;28;20069;-66
2022/09/14 10:59:40;;;;;;;4.07;1.70;;;;;;;;;;4962784;28;20513;-66
2022/09/14 11:02:21;;;;;;;3.88;2.00;;;;;;;;;;4976580;28;20105;-66
2022/09/14 11:05:16;;;;;;;2.10;1.70;;;;;;;;;;4975921;28;20030;-69
2022/09/14 11:08:04;;;;;;;12.07;2.90;;;;;;;;;;4940090;28;20175;-65
2022/09/14 11:11:05;;;;;;;2.60;1.80;;;;;;;;;;4975739;28;20043;-67
2022/09/14 11:14:00;;;;;;;2.28;1.75;;;;;;;;;;4963149;28;20093;-67
2022/09/14 11:16:29;;;;;;;1.90;1.58;;;;;;;;;;4975785;28;20046;-66
2022/09/14 11:19:21;;;;;;;2.75;1.52;;;;;;;;;;4975896;28;20053;-67
2022/09/14 11:21:59;;;;;;;5.78;2.05;;;;;;;;;;4968302;28;20051;-68
2022/09/14 11:24:35;;;;;;;3.78;2.00;;;;;;;;;;4957575;28;20031;-67
2022/09/14 11:27:08;;;;;;;7.10;2.22;;;;;;;;;;4956455;28;20041;-68
2022/09/14 11:29:43;;;;;;;5.00;1.90;;;;;;;;;;4956466;28;20118;-66
2022/09/14 11:32:14;;;;;;;3.85;2.20;;;;;;;;;;4954732;28;20031;-68
2022/09/14 11:35:15;;;;;;;4.50;2.22;;;;;;;;;;4956346;29;20031;-67
2022/09/14 11:38:00;;;;;;;4.75;2.60;;;;;;;;;;4956069;28;20138;-64
2022/09/14 11:40:56;;;;;;;4.60;1.90;;;;;;;;;;4955235;28;20051;-66
2022/09/14 11:43:35;;;;;;;3.65;2.10;;;;;;;;;;4956275;28;20043;-66
2022/09/14 11:46:07;;;;;;;6.85;1.83;;;;;;;;;;4956332;28;20375;-66
2022/09/14 11:49:00;;;;;;;4.68;2.10;;;;;;;;;;4954880;28;20035;-67
2022/09/14 11:51:40;;;;;;;4.75;2.10;;;;;;;;;;4938873;28;20117;-71
2022/09/14 11:54:15;;;;;;;2.70;2.00;;;;;;;;;;4955992;28;20125;-70
2022/09/14 11:56:42;;;;;;;3.22;2.03;;;;;;;;;;4955979;28;20039;-67
2022/09/14 11:59:40;;;;;;;5.72;1.80;;;;;;;;;;4956054;28;20247;-65
2022/09/14 12:02:27;;;;;;;2.70;1.80;;;;;;;;;;4955937;28;20031;-65
2022/09/14 12:05:09;;;;;;;6.00;1.90;;;;;;;;;;4956163;28;20047;-66
2022/09/14 12:07:46;;;;;;;6.55;2.20;;;;;;;;;;4955820;29;20035;-70
2022/09/14 12:10:12;;;;;;;5.72;1.98;;;;;;;;;;4955724;28;20042;-71
2022/09/14 12:12:42;;;;;;;3.33;1.85;;;;;;;;;;4954601;28;20406;-66
2022/09/14 12:15:24;;;;;;;6.63;2.20;;;;;;;;;;4955693;28;20135;-65
2022/09/14 12:18:00;;;;;;;4.18;1.90;;;;;;;;;;4955655;28;20059;-66
2022/09/14 12:20:42;;;;;;;3.22;1.67;;;;;;;;;;4955188;28;20086;-64
2022/09/14 12:23:36;;;;;;;4.50;2.30;;;;;;;;;;4955436;28;20031;-67
2022/09/14 12:26:05;;;;;;;5.90;1.70;;;;;;;;;;4938100;28;20063;-65
2022/09/14 12:28:33;;;;;;;4.65;2.10;;;;;;;;;;4955632;28;20027;-67
2022/09/14 12:31:01;;;;;;;7.03;3.03;;;;;;;;;;4954262;28;20122;-65
2022/09/14 12:33:30;;;;;;;3.88;2.10;;;;;;;;;;4955518;28;20019;-65
2022/09/14 12:36:19;;;;;;;4.65;1.88;;;;;;;;;;4955357;28;20101;-66
2022/09/14 12:38:51;;;;;;;3.17;1.85;;;;;;;;;;4928567;29;20043;-67
2022/09/14 12:41:17;;;;;;;;;;;;;;;;;;4955581;28;20039;-68
2022/09/14 12:43:52;;;;;;;2.88;1.67;;;;;;;;;;4953843;28;19915;-66
2022/09/14 12:46:21;;;;;;;2.78;1.63;;;;;;;;;;4952366;28;20119;-73
2022/09/14 12:51:27;;;;;;;2.72;1.90;;;;;;;;;;4972720;28;20058;-67
2022/09/14 12:54:08;;;;;;;3.67;2.10;;;;;;;;;;4973214;28;20035;-73
2022/09/14 12:57:12;;;;;;;4.88;1.92;;;;;;;;;;4973509;28;20051;-76
2022/09/14 13:00:00;;;;;;;3.60;1.60;;;;;;;;;;4972405;28;20150;-70
2022/09/14 13:02:54;;;;;;;2.42;1.77;;;;;;;;;;4972175;28;20047;-74
2022/09/14 13:05:23;;;;;;;3.90;1.85;;;;;;;;;;4972065;28;20091;-78
2022/09/14 13:07:50;;;;;;;5.60;1.98;;;;;;;;;;4973369;28;20065;-75
2022/09/14 13:10:32;;;;;;;5.00;1.80;;;;;;;;;;4972118;28;20035;-69
2022/09/14 13:13:01;;;;;;;2.10;1.65;;;;;;;;;;4970860;28;20074;-70
2022/09/14 13:15:32;;;;;;;3.35;1.60;;;;;;;;;;4933197;29;20050;-68
2022/09/14 13:18:03;;;;;;;4.22;1.85;;;;;;;;;;4932157;29;20039;-66
2022/09/14 13:20:31;;;;;;;3.88;1.80;;;;;;;;;;4933288;29;20028;-66
2022/09/14 13:22:57;;;;;;;4.35;1.98;;;;;;;;;;4933545;29;20098;-71
2022/09/14 13:25:32;;;;;;;3.92;1.60;;;;;;;;;;4932203;29;20032;-73
2022/09/14 13:28:01;;;;;;;2.42;1.75;;;;;;;;;;4932187;29;20035;-71
2022/09/14 13:30:28;;;;;;;5.22;2.03;;;;;;;;;;4932173;29;20384;-72
2022/09/14 13:32:56;;;;;;;2.08;1.67;;;;;;;;;;4934121;29;20179;-69
2022/09/14 13:35:29;;;;;;;4.28;1.90;;;;;;;;;;4935173;29;20103;-71
2022/09/14 13:37:57;;;;;;;3.20;2.13;;;;;;;;;;4935365;29;20039;-70
2022/09/14 13:40:27;;;;;;;3.22;1.67;;;;;;;;;;4935289;29;20230;-68
2022/09/14 13:42:53;;;;;;;3.70;1.95;;;;;;;;;;4935287;29;20062;-70
2022/09/14 13:45:21;;;;;;;9.57;2.38;;;;;;;;;;4935271;29;20107;-69
2022/09/14 13:47:47;;;;;;;4.20;2.15;;;;;;;;;;4935394;29;20043;-76
2022/09/14 13:50:13;;;;;;;7.03;2.30;;;;;;;;;;4935009;29;20028;-74
2022/09/14 13:52:41;;;;;;;4.18;2.08;;;;;;;;;;4935288;29;20051;-75
2022/09/14 13:55:13;;;;;;;3.65;2.30;;;;;;;;;;4935189;29;20471;-75
2022/09/14 13:58:23;;;;;;;5.07;2.05;;;;;;;;;;4934088;29;20118;-76
2022/09/14 14:01:03;;;;;;;6.63;3.03;;;;;;;;;;4928898;29;20047;-75
2022/09/14 14:03:35;;;;;;;3.85;1.80;;;;;;;;;;4936693;28;20040;-75
2022/09/14 14:06:20;;;;;;;2.70;1.80;;;;;;;;;;4939128;29;20042;-71
2022/09/14 14:09:02;;;;;;;3.22;1.83;;;;;;;;;;4939026;29;20171;-71
2022/09/14 14:11:36;;;;;;;3.35;1.83;;;;;;;;;;4938929;29;20046;-79
2022/09/14 14:14:11;;;;;;;4.85;1.85;;;;;;;;;;4937176;29;20070;-72
2022/09/14 14:16:37;;;;;;;5.38;2.50;;;;;;;;;;4938699;29;20050;-73
2022/09/14 14:19:03;;;;;;;4.35;2.13;;;;;;;;;;4938417;29;20040;-70
2022/09/14 14:21:31;;;;;;;4.97;1.80;;;;;;;;;;4938361;29;20079;-71
2022/09/14 14:24:36;;;;;;;7.20;1.75;;;;;;;;;;4936148;29;20024;-70
2022/09/14 14:27:02;;;;;;;2.70;1.92;;;;;;;;;;4935290;29;20047;-76
2022/09/14 14:29:28;;;;;;;5.70;2.30;;;;;;;;;;4935439;29;20086;-70
2022/09/14 14:31:55;;;;;;;5.72;1.60;;;;;;;;;;4918644;29;20562;-69
2022/09/14 14:34:27;;;;;;;3.53;2.13;;;;;;;;;;4956572;28;20093;-70
2022/09/14 14:36:54;;;;;;;5.03;1.80;;;;;;;;;;4956342;28;20428;-73
2022/09/14 14:39:24;;;;;;;3.25;1.85;;;;;;;;;;4956335;28;20071;-76
2022/09/14 14:41:50;;;;;;;3.95;1.70;;;;;;;;;;4949145;28;20034;-70
2022/09/14 14:44:27;;;;;;;3.25;1.63;;;;;;;;;;4937086;29;20059;-70
2022/09/14 14:46:53;;;;;;;4.55;1.95;;;;;;;;;;4936969;29;20032;-71
2022/09/14 14:49:19;;;;;;;4.78;1.83;;;;;;;;;;4937181;29;20035;-72
2022/09/14 14:51:46;;;;;;;2.20;1.63;;;;;;;;;;4936929;29;20031;-75
2022/09/14 14:54:15;;;;;;;3.38;1.95;;;;;;;;;;4936942;29;20397;-66
2022/09/14 14:56:42;;;;;;;4.90;1.88;;;;;;;;;;4937075;29;20138;-66
2022/09/14 14:59:20;;;;;;;3.17;1.90;;;;;;;;;;4937873;29;20419;-66
2022/09/14 15:01:47;;;;;;;3.15;1.92;;;;;;;;;;4937333;29;20493;-67
2022/09/14 15:04:13;;;;;;;2.40;1.70;;;;;;;;;;4937060;29;20032;-66
2022/09/14 15:06:39;;;;;;;4.60;1.92;;;;;;;;;;4936527;29;20031;-65
2022/09/14 15:09:20;;;;;;;3.63;2.17;;;;;;;;;;4954373;28;20106;-73
2022/09/14 15:11:46;;;;;;;2.97;1.70;;;;;;;;;;4955838;29;20538;-74
2022/09/14 15:14:17;;;;;;;4.88;1.75;;;;;;;;;;4954659;28;20114;-70